Time;durP1;ratioP1;P1;durP2;ratioP2;P2;SDS_P1;SDS_P2;PMS_P1;PMS_P2;Temp;Humidity;BMP_temperature;BMP_pressure;BME280_temperature;BME280_humidity;BME280_pressure;Samples;Min_cycle;Max_cycle;Signal;HPM_P1;HPM_P2
2023/05/24 00:01:43;;;;;;;0.10;0.10;;;;;;;13.01;57.29;102612.25;5117295;28;20494;-78
2023/05/24 00:04:09;;;;;;;0.10;0.10;;;;;;;12.98;57.53;102609.59;5119112;28;20024;-79
2023/05/24 00:06:36;;;;;;;0.10;0.10;;;;;;;12.94;57.07;102601.59;5115707;28;20024;-80
2023/05/24 00:09:03;;;;;;;0.10;0.10;;;;;;;12.92;56.56;102600.75;5118048;28;20067;-80
2023/05/24 00:11:29;;;;;;;0.35;0.35;;;;;;;12.90;57.13;102599.84;5116452;28;20063;-80
2023/05/24 00:13:56;;;;;;;0.10;0.10;;;;;;;12.88;56.98;102601.63;5118546;28;20024;-81
2023/05/24 00:16:22;;;;;;;0.10;0.10;;;;;;;12.86;57.60;102597.19;5118245;28;20016;-80
2023/05/24 00:18:48;;;;;;;0.95;0.95;;;;;;;12.83;57.52;102603.41;5119746;28;20087;-80
2023/05/24 00:21:14;;;;;;;0.10;0.10;;;;;;;12.79;57.60;102596.31;5112380;28;20165;-79
2023/05/24 00:23:42;;;;;;;0.10;0.10;;;;;;;12.76;57.60;102591.91;5107478;28;20097;-79
2023/05/24 00:26:09;;;;;;;0.10;0.10;;;;;;;12.75;57.30;102592.78;5109901;28;20021;-79
2023/05/24 00:28:35;;;;;;;0.10;0.10;;;;;;;12.73;57.73;102591.00;5111457;28;20544;-80
2023/05/24 00:31:01;;;;;;;0.10;0.10;;;;;;;12.68;57.91;102588.34;5110507;28;20024;-79
2023/05/24 00:33:28;;;;;;;1.17;0.52;;;;;;;12.65;57.30;102592.78;5112103;28;20515;-78
2023/05/24 00:35:55;;;;;;;0.10;0.10;;;;;;;12.60;57.32;102587.50;5112849;28;20024;-79
2023/05/24 00:38:24;;;;;;;0.20;0.20;;;;;;;12.57;56.79;102591.03;5112420;28;20024;-79
2023/05/24 00:40:50;;;;;;;0.10;0.10;;;;;;;12.51;57.74;102592.78;5113275;28;20028;-79
2023/05/24 00:43:16;;;;;;;0.10;0.10;;;;;;;12.45;58.42;102586.59;5115025;28;20031;-79
2023/05/24 00:45:42;;;;;;;0.10;0.10;;;;;;;12.43;57.50;102587.47;5118171;28;20599;-80
2023/05/24 00:48:10;;;;;;;0.10;0.10;;;;;;;12.40;58.19;102582.16;5115932;28;20031;-80
2023/05/24 00:50:38;;;;;;;0.10;0.10;;;;;;;12.40;57.88;102582.16;5115692;28;20024;-80
2023/05/24 00:53:05;;;;;;;0.30;0.30;;;;;;;12.40;58.84;102587.47;5112741;28;20518;-79
2023/05/24 00:55:34;;;;;;;0.10;0.10;;;;;;;12.39;58.77;102585.72;5115882;28;20097;-80
2023/05/24 00:58:00;;;;;;;0.10;0.10;;;;;;;12.37;58.99;102587.47;5113315;28;20367;-80
2023/05/24 01:00:28;;;;;;;0.10;0.10;;;;;;;12.36;58.47;102585.69;5117750;28;20046;-78
2023/05/24 01:02:54;;;;;;;0.10;0.10;;;;;;;12.35;58.49;102583.91;5114716;28;20051;-78
2023/05/24 01:05:22;;;;;;;0.10;0.10;;;;;;;12.36;59.01;102585.69;5113866;28;20027;-78
2023/05/24 01:08:28;;;;;;;0.10;0.10;;;;;;;12.39;59.26;102585.72;5109844;28;20023;-79
2023/05/24 01:11:12;;;;;;;0.10;0.10;;;;;;;12.32;58.51;102571.50;5112571;28;20038;-78
2023/05/24 01:13:57;;;;;;;0.10;0.10;;;;;;;12.33;58.82;102575.06;5117283;28;20519;-80
2023/05/24 01:16:30;;;;;;;0.10;0.10;;;;;;;12.27;58.62;102582.16;5113379;28;20506;-78
2023/05/24 01:18:59;;;;;;;0.10;0.10;;;;;;;12.29;59.17;102583.03;5114119;28;20080;-78
2023/05/24 01:21:58;;;;;;;0.10;0.10;;;;;;;12.34;58.91;102595.47;5111505;28;20042;-78
2023/05/24 01:27:26;;;;;;;0.10;0.10;;;;;;;12.21;59.72;102581.25;5117283;27;20402;-79
2023/05/24 01:29:52;;;;;;;0.13;0.13;;;;;;;12.18;58.98;102587.47;5124947;27;20024;-79
2023/05/24 01:32:19;;;;;;;0.10;0.10;;;;;;;12.16;59.62;102591.00;5128114;28;20023;-79
2023/05/24 01:34:45;;;;;;;0.00;0.00;;;;;;;12.12;59.44;102585.69;5129612;28;20035;-80
2023/05/24 01:37:11;;;;;;;0.10;0.10;;;;;;;12.11;59.84;102588.31;5140011;27;20018;-79
2023/05/24 01:39:38;;;;;;;0.10;0.10;;;;;;;12.09;58.99;102580.34;5151306;28;20028;-79
2023/05/24 01:45:05;;;;;;;0.10;0.10;;;;;;;12.15;59.22;102587.47;5106070;27;20043;-79
2023/05/24 01:47:57;;;;;;;0.10;0.10;;;;;;;12.17;59.19;102591.00;5089662;28;20505;-77
2023/05/24 01:50:33;;;;;;;0.13;0.13;;;;;;;12.14;58.96;102591.88;5085245;28;20036;-79
2023/05/24 01:53:05;;;;;;;0.10;0.10;;;;;;;12.11;60.14;102583.00;5088714;28;20585;-79
2023/05/24 01:55:33;;;;;;;0.10;0.10;;;;;;;12.07;59.41;102575.94;5087417;28;20039;-79
2023/05/24 01:58:03;;;;;;;0.20;0.20;;;;;;;12.04;59.52;102578.59;5087660;28;20024;-79
2023/05/24 02:00:32;;;;;;;0.10;0.10;;;;;;;12.02;60.27;102580.34;5089995;28;20082;-80
2023/05/24 02:02:58;;;;;;;0.17;0.17;;;;;;;11.98;59.98;102577.69;5090046;28;20027;-79
2023/05/24 02:05:24;;;;;;;0.10;0.10;;;;;;;11.96;60.10;102573.25;5090386;28;20107;-79
2023/05/24 02:07:50;;;;;;;0.10;0.10;;;;;;;11.94;59.64;102577.66;5092379;28;20107;-79
2023/05/24 02:10:16;;;;;;;0.10;0.10;;;;;;;11.90;60.61;102571.44;5091737;28;20482;-79
2023/05/24 02:12:43;;;;;;;0.73;0.73;;;;;;;11.89;60.32;102567.00;5089958;28;20075;-79
2023/05/24 02:15:09;;;;;;;0.10;0.10;;;;;;;11.87;59.61;102566.09;5089848;28;20509;-79
2023/05/24 02:17:35;;;;;;;0.20;0.20;;;;;;;11.83;59.79;102564.34;5095342;28;20032;-80
2023/05/24 02:20:02;;;;;;;0.10;0.10;;;;;;;11.81;59.17;102568.75;5094868;28;20058;-80
2023/05/24 02:22:29;;;;;;;0.10;0.10;;;;;;;11.80;59.81;102566.97;5090083;28;20028;-80
2023/05/24 02:24:55;;;;;;;0.10;0.10;;;;;;;11.78;60.75;102566.09;5088282;28;20028;-80
2023/05/24 02:27:21;;;;;;;0.10;0.10;;;;;;;11.79;60.39;102562.56;5091951;28;20035;-80
2023/05/24 02:29:47;;;;;;;0.20;0.20;;;;;;;11.78;60.10;102572.28;5096698;28;20031;-81
2023/05/24 02:32:13;;;;;;;0.10;0.10;;;;;;;11.80;60.49;102569.63;5084520;28;20032;-81
2023/05/24 02:34:41;;;;;;;0.20;0.20;;;;;;;11.77;61.13;102565.19;5094241;28;20039;-81
2023/05/24 02:37:07;;;;;;;0.10;0.10;;;;;;;11.79;60.97;102573.19;5094634;28;20031;-81
2023/05/24 02:39:33;;;;;;;0.10;0.10;;;;;;;11.77;61.03;102567.84;5110268;28;20028;-81
2023/05/24 02:41:59;;;;;;;0.10;0.10;;;;;;;11.77;59.85;102564.31;5106526;28;20033;-82
2023/05/24 02:44:25;;;;;;;0.05;0.05;;;;;;;11.75;59.70;102568.72;5096986;28;20047;-82
2023/05/24 02:46:52;;;;;;;0.00;0.00;;;;;;;11.75;60.34;102574.03;5092667;28;20044;-81
2023/05/24 02:49:18;;;;;;;0.10;0.10;;;;;;;11.76;60.68;102583.78;5095728;27;20035;-81
2023/05/24 02:51:44;;;;;;;0.10;0.10;;;;;;;11.76;60.42;102579.38;5097021;28;20040;-81
2023/05/24 02:54:10;;;;;;;0.10;0.10;;;;;;;11.76;61.46;102579.38;5090338;28;20028;-82
2023/05/24 02:56:38;;;;;;;0.00;0.00;;;;;;;11.76;61.26;102583.78;5083643;28;20059;-84
2023/05/24 02:59:04;;;;;;;0.10;0.10;;;;;;;11.75;61.31;102579.34;5073485;28;20056;-81
2023/05/24 03:01:32;;;;;;;2.17;0.88;;;;;;;11.73;60.88;102581.16;5080270;28;20538;-81
2023/05/24 03:03:58;;;;;;;0.10;0.10;;;;;;;11.73;61.26;102589.09;5082614;28;20024;-82
2023/05/24 03:06:24;;;;;;;0.10;0.10;;;;;;;11.70;60.82;102579.38;5081532;28;20544;-82
2023/05/24 03:08:51;;;;;;;0.10;0.10;;;;;;;11.68;61.68;102588.22;5080540;28;20036;-82
2023/05/24 03:11:20;;;;;;;2.83;1.50;;;;;;;11.65;61.76;102586.41;5073877;28;20054;-82
2023/05/24 03:13:47;;;;;;;0.10;0.10;;;;;;;11.64;61.17;102574.91;5080681;28;20027;-80
2023/05/24 03:16:13;;;;;;;0.28;0.28;;;;;;;11.60;61.20;102583.75;5079865;28;20039;-79
2023/05/24 03:18:40;;;;;;;0.20;0.20;;;;;;;11.60;61.30;102583.75;5086007;28;20036;-80
2023/05/24 03:21:06;;;;;;;0.10;0.10;;;;;;;11.60;61.24;102573.13;5077048;28;20035;-80
2023/05/24 03:23:32;;;;;;;0.10;0.10;;;;;;;11.58;60.96;102574.88;5081842;28;20028;-83
2023/05/24 03:25:58;;;;;;;0.00;0.00;;;;;;;11.56;60.53;102568.66;5079107;28;20028;-81
2023/05/24 03:28:24;;;;;;;0.20;0.20;;;;;;;11.55;60.52;102564.28;5073963;28;20035;-81
2023/05/24 03:30:50;;;;;;;0.10;0.10;;;;;;;11.54;61.45;102562.50;5077123;28;20032;-81
2023/05/24 03:33:16;;;;;;;0.10;0.10;;;;;;;11.54;60.87;102562.50;5081392;28;20481;-81
2023/05/24 03:35:43;;;;;;;0.10;0.10;;;;;;;11.53;60.92;102554.53;5079065;28;20062;-81
2023/05/24 03:38:09;;;;;;;0.15;0.15;;;;;;;11.55;60.59;102551.00;5080355;28;20027;-81
2023/05/24 03:40:35;;;;;;;0.10;0.10;;;;;;;11.55;61.17;102564.28;5077307;28;20028;-81
2023/05/24 03:43:02;;;;;;;0.10;0.10;;;;;;;11.57;61.44;102562.47;5075489;28;20390;-81
2023/05/24 03:45:28;;;;;;;0.15;0.15;;;;;;;11.57;62.21;102558.97;5077176;28;20374;-81
2023/05/24 03:47:54;;;;;;;0.10;0.10;;;;;;;11.56;61.83;102560.72;5084017;28;20035;-80
2023/05/24 03:50:20;;;;;;;0.10;0.10;;;;;;;11.56;61.41;102560.72;5084963;28;20497;-80
2023/05/24 03:52:46;;;;;;;4.85;1.13;;;;;;;11.58;60.95;102561.59;5078960;28;20074;-80
2023/05/24 03:55:13;;;;;;;0.52;0.52;;;;;;;11.57;61.83;102561.63;5088086;28;20488;-80
2023/05/24 03:57:41;;;;;;;0.10;0.10;;;;;;;11.56;62.01;102566.00;5080514;28;20024;-81
2023/05/24 04:00:08;;;;;;;0.10;0.10;;;;;;;11.56;62.20;102573.97;5083374;28;20112;-81
2023/05/24 04:02:36;;;;;;;0.10;0.10;;;;;;;11.55;62.42;102569.59;5082534;28;20029;-81
2023/05/24 04:05:04;;;;;;;0.10;0.10;;;;;;;11.55;62.83;102571.31;5083453;28;20036;-80
2023/05/24 04:07:32;;;;;;;0.10;0.10;;;;;;;11.56;61.98;102576.63;5077282;28;20029;-80
2023/05/24 04:09:59;;;;;;;0.10;0.10;;;;;;;11.59;62.26;102581.06;5077436;28;20027;-80
2023/05/24 04:12:25;;;;;;;0.15;0.15;;;;;;;11.61;62.53;102581.97;5075939;28;20024;-81
2023/05/24 04:14:51;;;;;;;0.10;0.10;;;;;;;11.63;62.23;102581.09;5079214;28;20020;-81
2023/05/24 04:17:17;;;;;;;0.10;0.10;;;;;;;11.64;62.53;102580.22;5074530;28;20520;-80
2023/05/24 04:19:45;;;;;;;0.10;0.10;;;;;;;11.66;62.58;102572.25;5076031;28;20776;-80
2023/05/24 04:22:11;;;;;;;0.73;0.73;;;;;;;11.70;61.80;102584.69;5076224;28;20025;-81
2023/05/24 04:24:37;;;;;;;0.20;0.20;;;;;;;11.73;62.66;102581.16;5082241;28;20055;-80
2023/05/24 04:27:04;;;;;;;0.10;0.10;;;;;;;11.76;61.47;102578.47;5079333;28;20502;-81
2023/05/24 04:29:32;;;;;;;0.10;0.10;;;;;;;11.77;61.31;102575.81;5077335;28;20086;-80
2023/05/24 04:32:00;;;;;;;0.10;0.10;;;;;;;11.81;62.03;102577.63;5078403;28;20024;-81
2023/05/24 04:34:28;;;;;;;0.68;0.68;;;;;;;11.85;62.25;102583.84;5074686;28;20033;-80
2023/05/24 04:36:54;;;;;;;0.10;0.10;;;;;;;11.88;62.58;102577.63;5080343;28;20086;-81
2023/05/24 04:39:21;;;;;;;0.20;0.20;;;;;;;11.92;62.81;102579.41;5078796;28;20034;-81
2023/05/24 04:41:49;;;;;;;0.10;0.10;;;;;;;11.96;61.95;102576.81;5076431;28;20032;-81
2023/05/24 04:44:16;;;;;;;0.13;0.13;;;;;;;12.01;61.68;102574.13;5079703;28;20016;-81
2023/05/24 04:46:42;;;;;;;0.10;0.10;;;;;;;12.04;62.15;102565.31;5076688;28;20082;-80
2023/05/24 04:49:08;;;;;;;0.10;0.10;;;;;;;12.06;62.44;102571.50;5080595;28;20036;-81
2023/05/24 04:51:37;;;;;;;0.00;0.00;;;;;;;12.11;61.69;102572.38;5080339;28;20116;-81
2023/05/24 04:54:07;;;;;;;0.10;0.10;;;;;;;12.13;61.54;102573.28;5082401;28;20035;-81
2023/05/24 04:56:35;;;;;;;0.10;0.10;;;;;;;12.17;61.29;102564.41;5078021;28;20090;-81
2023/05/24 04:59:01;;;;;;;0.10;0.10;;;;;;;12.21;62.36;102570.63;5080808;28;20017;-80
2023/05/24 05:01:27;;;;;;;0.10;0.10;;;;;;;12.26;61.03;102563.53;5081266;28;20028;-80
2023/05/24 05:03:53;;;;;;;0.10;0.10;;;;;;;12.30;60.88;102562.69;5088512;28;20029;-80
2023/05/24 05:06:19;;;;;;;0.10;0.10;;;;;;;12.35;60.92;102557.34;5086810;28;20052;-81
2023/05/24 05:08:46;;;;;;;0.10;0.10;;;;;;;12.40;61.82;102560.88;5085837;28;20024;-79
2023/05/24 05:11:13;;;;;;;0.10;0.10;;;;;;;12.47;61.79;102560.00;5080804;28;20035;-81
2023/05/24 05:13:40;;;;;;;0.10;0.10;;;;;;;12.51;61.57;102560.88;5077520;28;20020;-79
2023/05/24 05:16:06;;;;;;;0.10;0.10;;;;;;;12.56;60.84;102561.75;5080305;28;20025;-78
2023/05/24 05:18:32;;;;;;;0.40;0.40;;;;;;;12.62;61.32;102561.75;5072889;28;20043;-77
2023/05/24 05:20:58;;;;;;;0.10;0.10;;;;;;;12.66;61.52;102562.66;5077183;28;20161;-77
2023/05/24 05:23:25;;;;;;;0.10;0.10;;;;;;;12.73;60.91;102569.75;5089876;28;20081;-80
2023/05/24 05:25:51;;;;;;;0.10;0.10;;;;;;;12.78;61.34;102562.63;5077883;28;20033;-80
2023/05/24 05:28:17;;;;;;;0.10;0.10;;;;;;;12.85;60.53;102568.84;5078545;28;20032;-79
2023/05/24 05:30:43;;;;;;;0.10;0.10;;;;;;;12.90;60.85;102573.25;5080091;28;20036;-81
2023/05/24 05:33:09;;;;;;;0.10;0.10;;;;;;;12.97;60.47;102573.25;5082605;28;20028;-80
2023/05/24 05:35:35;;;;;;;0.00;0.00;;;;;;;13.03;60.54;102573.22;5085437;28;20051;-80
2023/05/24 05:38:01;;;;;;;0.10;0.10;;;;;;;13.10;60.87;102577.66;5077562;28;20020;-77
2023/05/24 05:40:27;;;;;;;0.10;0.10;;;;;;;13.16;60.74;102569.66;5079508;28;20040;-80
2023/05/24 05:42:53;;;;;;;0.10;0.10;;;;;;;13.24;61.03;102574.94;5078062;28;20392;-78
2023/05/24 05:45:19;;;;;;;1.50;1.45;;;;;;;13.32;59.94;102582.88;5082611;28;20438;-79
2023/05/24 05:47:46;;;;;;;0.10;0.10;;;;;;;13.38;60.31;102585.56;5082614;28;20040;-80
2023/05/24 05:50:15;;;;;;;0.00;0.00;;;;;;;13.50;60.66;102582.84;5082711;28;20021;-81
2023/05/24 05:52:41;;;;;;;0.10;0.10;;;;;;;13.58;60.37;102583.72;5083122;28;20033;-82
2023/05/24 05:55:08;;;;;;;0.10;0.10;;;;;;;13.68;60.50;102584.56;5078838;28;20105;-83
2023/05/24 05:57:34;;;;;;;0.30;0.30;;;;;;;13.81;60.43;102590.69;5072626;28;20096;-82
2023/05/24 06:00:00;;;;;;;0.10;0.10;;;;;;;13.93;59.69;102588.84;5076204;28;20108;-83
2023/05/24 06:02:26;;;;;;;0.10;0.10;;;;;;;13.99;59.96;102588.81;5077751;28;20040;-80
2023/05/24 06:04:52;;;;;;;0.13;0.13;;;;;;;14.07;59.88;102597.66;5075974;28;20043;-80
2023/05/24 06:07:19;;;;;;;0.10;0.10;;;;;;;14.14;59.79;102593.16;5076798;28;20107;-81
2023/05/24 06:09:45;;;;;;;0.20;0.20;;;;;;;14.22;60.10;102596.66;5073453;28;20063;-81
2023/05/24 06:12:11;;;;;;;0.17;0.17;;;;;;;14.33;59.84;102585.91;5078556;28;20032;-81
2023/05/24 06:14:38;;;;;;;0.10;0.10;;;;;;;14.44;59.77;102583.16;5080460;28;20112;-82
2023/05/24 06:17:05;;;;;;;0.10;0.10;;;;;;;14.56;59.54;102588.38;5081881;28;20029;-82
2023/05/24 06:19:31;;;;;;;0.10;0.10;;;;;;;14.66;59.59;102583.91;5082131;28;20028;-81
2023/05/24 06:21:58;;;;;;;0.17;0.17;;;;;;;14.78;59.27;102586.44;5077272;28;20087;-81
2023/05/24 06:24:24;;;;;;;0.22;0.22;;;;;;;14.85;59.11;102592.59;5077547;28;20450;-81
2023/05/24 06:26:52;;;;;;;2.15;1.95;;;;;;;14.96;58.97;102589.84;5075514;28;20037;-81
2023/05/24 06:29:19;;;;;;;0.10;0.10;;;;;;;14.97;59.12;102588.94;5075949;28;20024;-81
2023/05/24 06:31:46;;;;;;;0.13;0.13;;;;;;;15.08;58.87;102595.03;5080373;28;20136;-80
2023/05/24 06:34:16;;;;;;;0.10;0.10;;;;;;;15.14;58.38;102600.31;5078425;28;20054;-80
2023/05/24 06:36:47;;;;;;;6.60;1.55;;;;;;;15.22;58.25;102594.88;5081932;28;20027;-81
2023/05/24 06:39:14;;;;;;;0.10;0.10;;;;;;;15.26;58.06;102598.41;5082912;28;20051;-81
2023/05/24 06:41:42;;;;;;;0.10;0.10;;;;;;;15.33;58.15;102598.31;5083489;28;20060;-82
2023/05/24 06:44:10;;;;;;;0.10;0.10;;;;;;;15.40;57.81;102601.78;5087803;28;20028;-81
2023/05/24 06:46:36;;;;;;;0.47;0.47;;;;;;;15.43;57.67;102599.09;5105019;28;20043;-81
2023/05/24 06:49:02;;;;;;;0.10;0.10;;;;;;;15.50;57.76;102600.78;5101756;28;20048;-81
2023/05/24 06:51:29;;;;;;;0.43;0.43;;;;;;;15.57;57.34;102598.91;5079226;28;20060;-79
2023/05/24 06:53:55;;;;;;;2.20;2.00;;;;;;;15.65;57.46;102588.09;5082060;28;20020;-80
2023/05/24 06:56:22;;;;;;;0.60;0.40;;;;;;;15.72;57.12;102587.13;5082466;28;20115;-80
2023/05/24 06:58:48;;;;;;;0.10;0.10;;;;;;;15.79;57.32;102588.81;5082930;28;20036;-81
2023/05/24 07:01:15;;;;;;;1.38;1.27;;;;;;;15.88;56.99;102578.94;5080374;28;20032;-80
2023/05/24 07:03:41;;;;;;;0.10;0.10;;;;;;;15.91;56.13;102585.09;5082615;28;20035;-81
2023/05/24 07:06:08;;;;;;;0.10;0.10;;;;;;;15.99;56.22;102577.00;5079252;28;20127;-79
2023/05/24 07:08:35;;;;;;;0.10;0.10;;;;;;;16.06;56.10;102591.13;5083579;28;20490;-80
2023/05/24 07:11:02;;;;;;;0.10;0.10;;;;;;;16.12;55.83;102589.25;5082807;28;20032;-79
2023/05/24 07:13:28;;;;;;;0.00;0.00;;;;;;;16.18;55.97;102586.47;5091686;28;20024;-79
2023/05/24 07:15:54;;;;;;;0.10;0.10;;;;;;;16.22;55.73;102583.78;5100647;28;20040;-81
2023/05/24 07:18:20;;;;;;;0.10;0.10;;;;;;;16.25;55.31;102581.94;5096213;28;20020;-83
2023/05/24 07:20:46;;;;;;;0.20;0.20;;;;;;;16.29;55.68;102578.28;5087550;28;20032;-82
2023/05/24 07:23:13;;;;;;;0.70;0.70;;;;;;;16.34;55.60;102580.91;5092203;28;20036;-80
2023/05/24 07:25:39;;;;;;;0.10;0.10;;;;;;;16.33;54.37;102587.16;5099121;28;20040;-80
2023/05/24 07:28:05;;;;;;;0.10;0.10;;;;;;;16.43;54.32;102599.47;5094841;28;20043;-83
2023/05/24 07:30:32;;;;;;;0.00;0.00;;;;;;;16.52;54.49;102593.06;5093392;28;20028;-83
2023/05/24 07:32:58;;;;;;;0.28;0.28;;;;;;;16.58;54.29;102597.44;5085839;28;20050;-84
2023/05/24 07:35:24;;;;;;;0.10;0.10;;;;;;;16.67;54.48;102597.28;5105584;28;20108;-81
2023/05/24 07:37:50;;;;;;;0.17;0.17;;;;;;;16.76;54.02;102597.13;5088262;28;20032;-81
2023/05/24 07:40:16;;;;;;;5.07;1.20;;;;;;;16.85;53.38;102592.50;5085248;28;20056;-81
2023/05/24 07:42:42;;;;;;;0.85;0.85;;;;;;;16.95;53.84;102594.16;5082638;28;20024;-81
2023/05/24 07:45:09;;;;;;;0.10;0.10;;;;;;;17.00;53.52;102600.28;5080568;28;20032;-82
2023/05/24 07:47:36;;;;;;;0.20;0.20;;;;;;;16.98;53.29;102600.34;5081225;28;20040;-82
2023/05/24 07:50:02;;;;;;;0.10;0.10;;;;;;;16.98;53.11;102600.34;5084400;28;20031;-84
2023/05/24 07:52:29;;;;;;;0.10;0.10;;;;;;;16.96;52.99;102591.44;5086953;28;20059;-82
2023/05/24 07:54:55;;;;;;;0.15;0.15;;;;;;;16.96;53.18;102599.47;5084725;28;20055;-84
2023/05/24 07:57:22;;;;;;;0.10;0.10;;;;;;;17.02;52.38;102598.44;5081209;28;20021;-83
2023/05/24 07:59:48;;;;;;;0.10;0.10;;;;;;;17.11;52.43;102595.63;5084543;28;20031;-82
2023/05/24 08:02:15;;;;;;;0.17;0.17;;;;;;;17.18;52.41;102596.38;5090140;28;20028;-83
2023/05/24 08:04:42;;;;;;;0.10;0.10;;;;;;;17.22;52.27;102595.41;5092223;28;20032;-83
2023/05/24 08:07:08;;;;;;;0.10;0.10;;;;;;;17.30;51.95;102595.25;5092026;28;20378;-83
2023/05/24 08:09:36;;;;;;;0.00;0.00;;;;;;;17.34;51.32;102591.59;5082748;28;20423;-83
2023/05/24 08:12:04;;;;;;;0.77;0.77;;;;;;;17.48;52.02;102587.75;5081472;28;20092;-82
2023/05/24 08:14:31;;;;;;;0.10;0.10;;;;;;;17.55;51.57;102594.75;5079549;28;20063;-83
2023/05/24 08:16:59;;;;;;;0.10;0.10;;;;;;;17.64;51.23;102591.84;5075289;28;20112;-81
2023/05/24 08:19:26;;;;;;;0.10;0.10;;;;;;;17.72;51.12;102587.22;5094065;28;20464;-81
2023/05/24 08:21:55;;;;;;;0.10;0.10;;;;;;;17.79;50.79;102588.84;5100735;28;20028;-81
2023/05/24 08:24:21;;;;;;;0.10;0.10;;;;;;;17.83;50.87;102583.41;5082969;28;20024;-81
2023/05/24 08:26:48;;;;;;;0.10;0.10;;;;;;;17.84;50.47;102585.16;5083574;28;20082;-83
2023/05/24 08:29:16;;;;;;;0.10;0.10;;;;;;;17.81;48.42;102579.84;5083384;28;20452;-83
2023/05/24 08:31:43;;;;;;;0.38;0.38;;;;;;;17.90;50.15;102576.97;5080563;28;20028;-82
2023/05/24 08:34:09;;;;;;;0.00;0.00;;;;;;;17.97;50.44;102580.44;5079703;28;20021;-81
2023/05/24 08:36:36;;;;;;;0.43;0.43;;;;;;;17.99;49.95;102575.91;5082069;28;20043;-81
2023/05/24 08:39:03;;;;;;;0.30;0.30;;;;;;;17.98;49.71;102584.88;5080769;28;20127;-82
2023/05/24 08:41:32;;;;;;;0.52;0.52;;;;;;;17.94;48.65;102579.59;5079904;28;20020;-82
2023/05/24 08:44:01;;;;;;;0.10;0.10;;;;;;;17.96;49.01;102576.88;5080045;28;20016;-82
2023/05/24 08:46:27;;;;;;;0.17;0.17;;;;;;;18.04;48.98;102584.72;5080703;28;20459;-82
2023/05/24 08:48:56;;;;;;;0.17;0.17;;;;;;;18.16;49.12;102580.91;5082751;28;20031;-81
2023/05/24 08:51:23;;;;;;;0.10;0.10;;;;;;;18.29;48.78;102581.47;5085278;28;20051;-81
2023/05/24 08:53:50;;;;;;;0.10;0.10;;;;;;;18.46;48.62;102583.72;5082719;28;20025;-83
2023/05/24 08:56:17;;;;;;;0.10;0.10;;;;;;;18.57;48.32;102582.53;5085429;28;20043;-83
2023/05/24 08:58:44;;;;;;;0.20;0.20;;;;;;;18.65;47.64;102578.75;5084180;28;20036;-83
2023/05/24 09:01:13;;;;;;;0.30;0.30;;;;;;;18.75;48.25;102582.97;5082743;28;20020;-83
2023/05/24 09:03:42;;;;;;;0.10;0.10;;;;;;;18.79;47.54;102581.97;5078279;28;20059;-83
2023/05/24 09:06:09;;;;;;;0.25;0.25;;;;;;;18.80;47.47;102578.34;5078504;28;20086;-84
2023/05/24 09:08:37;;;;;;;0.10;0.10;;;;;;;18.85;47.57;102583.59;5079000;28;20033;-83
2023/05/24 09:11:06;;;;;;;0.63;0.63;;;;;;;18.91;47.20;102578.09;5079202;28;20021;-84
2023/05/24 09:13:33;;;;;;;0.10;0.10;;;;;;;18.95;47.50;102579.75;5080632;28;20055;-84
2023/05/24 09:16:01;;;;;;;0.10;0.10;;;;;;;19.04;47.24;102582.22;5081205;28;20032;-83
2023/05/24 09:18:28;;;;;;;0.40;0.40;;;;;;;19.17;46.55;102585.41;5077899;28;20066;-84
2023/05/24 09:20:54;;;;;;;0.13;0.13;;;;;;;19.30;45.48;102577.00;5076178;28;20033;-83
2023/05/24 09:23:21;;;;;;;0.10;0.10;;;;;;;19.42;45.15;102575.78;5075846;28;20113;-83
2023/05/24 09:25:48;;;;;;;0.10;0.10;;;;;;;19.60;45.93;102579.69;5074625;28;20066;-84
2023/05/24 09:28:17;;;;;;;0.10;0.10;;;;;;;19.70;45.15;102581.16;5075724;28;20020;-84
2023/05/24 09:30:44;;;;;;;0.10;0.10;;;;;;;19.71;45.18;102578.47;5072615;28;20028;-83
2023/05/24 09:33:12;;;;;;;0.55;0.55;;;;;;;19.69;45.38;102569.53;5078090;28;20019;-84
2023/05/24 09:35:43;;;;;;;0.10;0.10;;;;;;;19.80;45.47;102571.00;5077360;28;20034;-83
2023/05/24 09:38:18;;;;;;;0.10;0.10;;;;;;;19.82;44.91;102569.16;5080732;28;20029;-83
2023/05/24 09:40:45;;;;;;;0.10;0.10;;;;;;;19.78;44.96;102567.50;5079530;28;20033;-81
2023/05/24 09:43:11;;;;;;;0.25;0.25;;;;;;;19.78;45.23;102563.00;5088502;28;20062;-82
2023/05/24 09:45:45;;;;;;;0.10;0.10;;;;;;;19.72;45.01;102569.44;5087475;28;20043;-82
2023/05/24 09:48:12;;;;;;;0.22;0.22;;;;;;;19.64;45.07;102555.38;5080351;28;20029;-82
2023/05/24 09:50:39;;;;;;;0.10;0.10;;;;;;;19.61;44.27;102547.38;5079078;28;20025;-85
2023/05/24 09:53:06;;;;;;;0.20;0.20;;;;;;;19.64;44.70;102555.38;5076684;28;20024;-84
2023/05/24 09:55:36;;;;;;;0.10;0.10;;;;;;;19.73;44.69;102547.00;5076456;28;20085;-82
2023/05/24 09:58:07;;;;;;;0.63;0.63;;;;;;;19.79;44.87;102548.63;5076381;28;20020;-82
2023/05/24 10:00:35;;;;;;;0.40;0.40;;;;;;;19.83;44.80;102550.31;5074440;28;20047;-83
2023/05/24 10:03:07;;;;;;;0.10;0.10;;;;;;;19.83;43.05;102544.06;5072096;28;20021;-83
2023/05/24 10:05:34;;;;;;;0.30;0.30;;;;;;;19.86;43.77;102549.34;5077510;28;20050;-82
2023/05/24 10:08:03;;;;;;;0.10;0.10;;;;;;;19.87;43.56;102551.09;5079535;28;20433;-82
2023/05/24 10:10:31;;;;;;;0.10;0.10;;;;;;;19.91;43.50;102550.06;5079521;28;20039;-85
2023/05/24 10:12:59;;;;;;;0.10;0.10;;;;;;;19.98;43.29;102543.56;5077732;28;20031;-82
2023/05/24 10:15:26;;;;;;;0.30;0.30;;;;;;;20.11;44.09;102538.69;5074628;28;20079;-85
2023/05/24 10:17:54;;;;;;;0.10;0.10;;;;;;;20.22;43.72;102540.97;5074006;28;20051;-81
2023/05/24 10:20:20;;;;;;;0.10;0.10;;;;;;;20.30;43.98;102536.22;5076150;28;20041;-83
2023/05/24 10:22:52;;;;;;;0.10;0.10;;;;;;;20.43;43.76;102541.19;5073502;28;20029;-82
2023/05/24 10:25:24;;;;;;;0.43;0.43;;;;;;;20.54;43.53;102544.41;5076921;28;20029;-83
2023/05/24 10:28:00;;;;;;;0.10;0.10;;;;;;;20.59;42.90;102542.41;5078486;28;20631;-83
2023/05/24 10:30:33;;;;;;;0.00;0.00;;;;;;;20.58;40.23;102537.97;5076816;28;20067;-83
2023/05/24 10:33:00;;;;;;;0.10;0.10;;;;;;;20.60;42.18;102544.19;5077209;28;20020;-85
2023/05/24 10:35:28;;;;;;;0.10;0.10;;;;;;;20.59;41.48;102542.41;5085727;28;20439;-85
2023/05/24 10:37:54;;;;;;;0.20;0.20;;;;;;;20.61;41.75;102542.34;5087242;28;20039;-84
2023/05/24 10:40:25;;;;;;;0.10;0.10;;;;;;;20.62;42.07;102546.81;5085456;28;20398;-84
2023/05/24 10:42:53;;;;;;;0.10;0.10;;;;;;;20.66;42.14;102546.66;5084871;28;20033;-84
2023/05/24 10:48:27;;;;;;;0.20;0.20;;;;;;;20.91;41.96;102545.81;5120028;27;1176540;-83
2023/05/24 10:50:53;;;;;;;0.10;0.10;;;;;;;21.06;41.05;102548.84;5117480;28;20031;-83
2023/05/24 10:53:24;;;;;;;0.00;0.00;;;;;;;21.28;41.81;102538.16;5105672;28;20028;-85
2023/05/24 11:01:33;;;;;;;0.20;0.20;;;;;;;21.47;41.34;102530.22;5140023;27;20402;-82
2023/05/24 11:04:19;;;;;;;0.10;0.10;;;;;;;21.47;41.12;102532.91;5137944;27;20032;-80
2023/05/24 11:09:23;;;;;;;0.00;0.00;;;;;;;21.36;40.74;102536.03;5075593;27;20410;-80
2023/05/24 11:11:53;;;;;;;0.20;0.20;;;;;;;21.33;40.91;102539.75;5074335;27;20025;-82
2023/05/24 11:14:26;;;;;;;0.10;0.10;;;;;;;21.30;39.58;102538.97;5081508;28;20024;-81
2023/05/24 11:16:52;;;;;;;0.10;0.10;;;;;;;21.24;40.81;102532.00;5081418;27;20037;-82
2023/05/24 11:19:21;;;;;;;0.10;0.10;;;;;;;21.21;41.17;102537.50;5080385;28;20052;-82
2023/05/24 11:21:49;;;;;;;1.20;0.45;;;;;;;21.13;40.88;102537.81;5072355;28;20060;-81
2023/05/24 11:24:17;;;;;;;0.15;0.15;;;;;;;21.04;40.38;102542.66;5074435;28;20028;-82
2023/05/24 11:26:44;;;;;;;0.10;0.10;;;;;;;20.98;40.47;102539.22;5069953;28;20103;-82
2023/05/24 11:29:16;;;;;;;0.15;0.15;;;;;;;20.97;40.66;102544.69;5073578;28;20025;-80
2023/05/24 11:31:47;;;;;;;0.10;0.10;;;;;;;20.91;39.65;102540.41;5073140;28;20028;-80
2023/05/24 11:34:13;;;;;;;0.50;0.50;;;;;;;20.87;41.31;102537.88;5076667;28;20120;-81
2023/05/24 11:36:40;;;;;;;0.10;0.10;;;;;;;20.86;41.64;102537.03;5075012;28;20040;-81
2023/05/24 11:39:08;;;;;;;0.10;0.10;;;;;;;20.82;41.19;102540.75;5073129;28;20017;-81
2023/05/24 11:41:36;;;;;;;0.10;0.10;;;;;;;20.79;41.50;102538.16;5079930;28;20024;-80
2023/05/24 11:44:03;;;;;;;0.10;0.10;;;;;;;20.68;41.12;102539.38;5075880;28;20048;-81